sensor_id;sensor_type;location;lat;lon;timestamp;pressure;altitude;pressure_sealevel;temperature;humidity
67738;BME280;54534;43.612;1.572;2023-04-01T00:00:20;99372.22;;;18.94;49.61
67738;BME280;54534;43.612;1.572;2023-04-01T00:02:45;99368.69;;;18.93;49.63
67738;BME280;54534;43.612;1.572;2023-04-01T00:05:12;99363.50;;;18.92;49.48
67738;BME280;54534;43.612;1.572;2023-04-01T00:07:38;99360.72;;;18.93;49.56
67738;BME280;54534;43.612;1.572;2023-04-01T00:10:05;99367.97;;;18.91;49.64
67738;BME280;54534;43.612;1.572;2023-04-01T00:12:31;99375.00;;;18.92;49.80
67738;BME280;54534;43.612;1.572;2023-04-01T00:14:57;99365.44;;;18.89;49.52
67738;BME280;54534;43.612;1.572;2023-04-01T00:17:22;99370.78;;;18.89;49.64
67738;BME280;54534;43.612;1.572;2023-04-01T00:19:48;99376.94;;;18.90;49.80
67738;BME280;54534;43.612;1.572;2023-04-01T00:22:13;99371.75;;;18.88;49.71
67738;BME280;54534;43.612;1.572;2023-04-01T00:24:39;99373.53;;;18.88;49.64
67738;BME280;54534;43.612;1.572;2023-04-01T00:27:04;99372.69;;;18.87;49.72
67738;BME280;54534;43.612;1.572;2023-04-01T00:29:30;99365.56;;;18.88;49.81
67738;BME280;54534;43.612;1.572;2023-04-01T00:31:58;99363.88;;;18.87;49.66
67738;BME280;54534;43.612;1.572;2023-04-01T00:34:24;99359.50;;;18.86;49.54
67738;BME280;54534;43.612;1.572;2023-04-01T00:36:51;99345.34;;;18.85;49.76
67738;BME280;54534;43.612;1.572;2023-04-01T00:39:21;99339.16;;;18.85;49.55
67738;BME280;54534;43.612;1.572;2023-04-01T00:41:47;99335.66;;;18.84;49.59
67738;BME280;54534;43.612;1.572;2023-04-01T00:44:24;99348.97;;;18.84;49.81
67738;BME280;54534;43.612;1.572;2023-04-01T00:46:50;99349.94;;;18.83;49.50
67738;BME280;54534;43.612;1.572;2023-04-01T00:49:19;99349.09;;;18.83;49.65
67738;BME280;54534;43.612;1.572;2023-04-01T00:51:47;99353.56;;;18.82;49.60
67738;BME280;54534;43.612;1.572;2023-04-01T00:54:15;99350.06;;;18.82;49.43
67738;BME280;54534;43.612;1.572;2023-04-01T00:56:45;99335.91;;;18.81;49.27
67738;BME280;54534;43.612;1.572;2023-04-01T00:59:16;99351.03;;;18.81;49.41
67738;BME280;54534;43.612;1.572;2023-04-01T01:01:43;99350.31;;;18.78;49.86
67738;BME280;54534;43.612;1.572;2023-04-01T01:04:26;99344.00;;;18.79;49.44
67738;BME280;54534;43.612;1.572;2023-04-01T01:09:41;99335.28;;;18.77;49.60
67738;BME280;54534;43.612;1.572;2023-04-01T01:12:18;99341.47;;;18.78;49.61
67738;BME280;54534;43.612;1.572;2023-04-01T01:14:51;99339.75;;;18.77;49.24
67738;BME280;54534;43.612;1.572;2023-04-01T01:17:52;99344.25;;;18.76;49.72
67738;BME280;54534;43.612;1.572;2023-04-01T01:20:30;99345.22;;;18.75;49.34
67738;BME280;54534;43.612;1.572;2023-04-01T01:25:59;99339.03;;;18.75;49.34
67738;BME280;54534;43.612;1.572;2023-04-01T01:36:19;99332.28;;;18.71;49.79
67738;BME280;54534;43.612;1.572;2023-04-01T01:38:47;99337.72;;;18.69;49.45
67738;BME280;54534;43.612;1.572;2023-04-01T01:41:15;99332.16;;;18.72;49.50
67738;BME280;54534;43.612;1.572;2023-04-01T01:43:44;99329.63;;;18.71;49.71
67738;BME280;54534;43.612;1.572;2023-04-01T01:46:16;99331.41;;;18.70;49.19
67738;BME280;54534;43.612;1.572;2023-04-01T01:48:43;99332.38;;;18.69;49.54
67738;BME280;54534;43.612;1.572;2023-04-01T01:51:10;99324.38;;;18.69;49.43
67738;BME280;54534;43.612;1.572;2023-04-01T01:53:36;99329.72;;;18.69;49.56
67738;BME280;54534;43.612;1.572;2023-04-01T01:56:02;99322.56;;;18.70;49.26
67738;BME280;54534;43.612;1.572;2023-04-01T01:58:32;99332.50;;;18.67;49.65
67738;BME280;54534;43.612;1.572;2023-04-01T02:01:01;99321.72;;;18.69;49.50
67738;BME280;54534;43.612;1.572;2023-04-01T02:03:31;99326.19;;;18.68;49.40
67738;BME280;54534;43.612;1.572;2023-04-01T02:05:59;99320.06;;;18.68;49.58
67738;BME280;54534;43.612;1.572;2023-04-01T02:08:35;99325.38;;;18.68;49.64
67738;BME280;54534;43.612;1.572;2023-04-01T02:11:07;99322.81;;;18.66;49.17
67738;BME280;54534;43.612;1.572;2023-04-01T02:16:11;99312.16;;;18.66;49.31
67738;BME280;54534;43.612;1.572;2023-04-01T02:18:38;99305.16;;;18.65;49.29
67738;BME280;54534;43.612;1.572;2023-04-01T02:21:05;99307.81;;;18.65;49.54
67738;BME280;54534;43.612;1.572;2023-04-01T02:23:34;99309.63;;;18.65;49.16
67738;BME280;54534;43.612;1.572;2023-04-01T02:26:02;99315.06;;;18.63;49.13
67738;BME280;54534;43.612;1.572;2023-04-01T02:28:30;99309.75;;;18.63;48.89
67738;BME280;54534;43.612;1.572;2023-04-01T02:30:57;99309.75;;;18.63;49.26
67738;BME280;54534;43.612;1.572;2023-04-01T02:33:25;99309.88;;;18.62;49.03
67738;BME280;54534;43.612;1.572;2023-04-01T02:35:52;99310.72;;;18.62;49.08
67738;BME280;54534;43.612;1.572;2023-04-01T02:38:18;99314.25;;;18.63;48.90
67738;BME280;54534;43.612;1.572;2023-04-01T02:40:46;99316.91;;;18.63;49.05
67738;BME280;54534;43.612;1.572;2023-04-01T02:43:12;99320.53;;;18.62;48.86
67738;BME280;54534;43.612;1.572;2023-04-01T02:45:38;99318.81;;;18.61;49.00
67738;BME280;54534;43.612;1.572;2023-04-01T02:48:04;99311.81;;;18.60;49.11
67738;BME280;54534;43.612;1.572;2023-04-01T02:50:29;99316.16;;;18.61;49.06
67738;BME280;54534;43.612;1.572;2023-04-01T02:52:55;99318.00;;;18.60;48.96
67738;BME280;54534;43.612;1.572;2023-04-01T02:55:21;99322.47;;;18.60;48.95
67738;BME280;54534;43.612;1.572;2023-04-01T02:57:46;99327.06;;;18.58;48.79
67738;BME280;54534;43.612;1.572;2023-04-01T03:00:12;99318.09;;;18.59;49.12
67738;BME280;54534;43.612;1.572;2023-04-01T03:02:38;99318.09;;;18.59;49.00
67738;BME280;54534;43.612;1.572;2023-04-01T03:05:04;99326.09;;;18.59;49.15
67738;BME280;54534;43.612;1.572;2023-04-01T03:07:31;99320.03;;;18.56;48.68
67738;BME280;54534;43.612;1.572;2023-04-01T03:09:56;99328.03;;;18.56;49.02
67738;BME280;54534;43.612;1.572;2023-04-01T03:12:21;99322.69;;;18.56;48.51
67738;BME280;54534;43.612;1.572;2023-04-01T03:14:47;99324.50;;;18.56;48.63
67738;BME280;54534;43.612;1.572;2023-04-01T03:17:12;99317.38;;;18.56;49.08
67738;BME280;54534;43.612;1.572;2023-04-01T03:19:38;99321.00;;;18.55;48.67
67738;BME280;54534;43.612;1.572;2023-04-01T03:22:03;99319.31;;;18.54;48.95
67738;BME280;54534;43.612;1.572;2023-04-01T03:24:29;99311.34;;;18.54;49.02
67738;BME280;54534;43.612;1.572;2023-04-01T03:26:54;99302.50;;;18.54;49.03
67738;BME280;54534;43.612;1.572;2023-04-01T03:29:20;99308.66;;;18.54;48.99
67738;BME280;54534;43.612;1.572;2023-04-01T03:31:45;99304.31;;;18.53;48.50
67738;BME280;54534;43.612;1.572;2023-04-01T03:34:11;99299.97;;;18.52;48.66
67738;BME280;54534;43.612;1.572;2023-04-01T03:36:36;99306.97;;;18.53;48.90
67738;BME280;54534;43.612;1.572;2023-04-01T03:39:02;99299.97;;;18.52;48.70
67738;BME280;54534;43.612;1.572;2023-04-01T03:41:28;99304.44;;;18.52;48.97
67738;BME280;54534;43.612;1.572;2023-04-01T03:43:54;99307.09;;;18.52;48.53
67738;BME280;54534;43.612;1.572;2023-04-01T03:46:20;99308.91;;;18.51;48.53
67738;BME280;54534;43.612;1.572;2023-04-01T03:48:45;99303.56;;;18.51;48.47
67738;BME280;54534;43.612;1.572;2023-04-01T03:51:11;99313.38;;;18.51;48.79
67738;BME280;54534;43.612;1.572;2023-04-01T03:53:36;99304.53;;;18.50;48.91
67738;BME280;54534;43.612;1.572;2023-04-01T03:56:06;99302.72;;;18.51;48.35
67738;BME280;54534;43.612;1.572;2023-04-01T03:58:32;99297.41;;;18.51;48.76
67738;BME280;54534;43.612;1.572;2023-04-01T04:00:57;99286.88;;;18.49;48.83
67738;BME280;54534;43.612;1.572;2023-04-01T04:03:23;99289.53;;;18.49;48.76
67738;BME280;54534;43.612;1.572;2023-04-01T04:05:49;99295.81;;;18.48;48.46
67738;BME280;54534;43.612;1.572;2023-04-01T04:08:15;99292.31;;;18.48;48.62
67738;BME280;54534;43.612;1.572;2023-04-01T04:10:40;99294.97;;;18.48;48.30
67738;BME280;54534;43.612;1.572;2023-04-01T04:13:06;99292.31;;;18.48;48.83
67738;BME280;54534;43.612;1.572;2023-04-01T04:15:32;99292.31;;;18.48;48.26
67738;BME280;54534;43.612;1.572;2023-04-01T04:17:57;99286.16;;;18.47;48.33
67738;BME280;54534;43.612;1.572;2023-04-01T04:20:22;99290.63;;;18.47;48.67
67738;BME280;54534;43.612;1.572;2023-04-01T04:22:48;99285.31;;;18.47;48.27
67738;BME280;54534;43.612;1.572;2023-04-01T04:25:13;99284.47;;;18.46;48.64
67738;BME280;54534;43.612;1.572;2023-04-01T04:27:39;99284.59;;;18.44;48.63
67738;BME280;54534;43.612;1.572;2023-04-01T04:30:05;99288.06;;;18.45;48.60
67738;BME280;54534;43.612;1.572;2023-04-01T04:32:31;99291.72;;;18.44;48.27
67738;BME280;54534;43.612;1.572;2023-04-01T04:34:57;99291.72;;;18.44;48.55
67738;BME280;54534;43.612;1.572;2023-04-01T04:37:22;99290.75;;;18.45;48.75
67738;BME280;54534;43.612;1.572;2023-04-01T04:39:47;99291.72;;;18.44;48.79
67738;BME280;54534;43.612;1.572;2023-04-01T04:42:13;99291.72;;;18.44;48.79
67738;BME280;54534;43.612;1.572;2023-04-01T04:44:39;99284.69;;;18.43;48.59
67738;BME280;54534;43.612;1.572;2023-04-01T04:47:04;99298.84;;;18.43;48.54
67738;BME280;54534;43.612;1.572;2023-04-01T04:49:30;99298.00;;;18.43;48.35
67738;BME280;54534;43.612;1.572;2023-04-01T04:51:55;99303.31;;;18.43;48.28
67738;BME280;54534;43.612;1.572;2023-04-01T04:54:21;99294.50;;;18.42;48.47
67738;BME280;54534;43.612;1.572;2023-04-01T04:56:46;99299.94;;;18.41;48.23
67738;BME280;54534;43.612;1.572;2023-04-01T04:59:12;99295.47;;;18.41;47.80
67738;BME280;54534;43.612;1.572;2023-04-01T05:01:37;99294.63;;;18.41;48.23
67738;BME280;54534;43.612;1.572;2023-04-01T05:04:03;99293.66;;;18.42;48.38
67738;BME280;54534;43.612;1.572;2023-04-01T05:06:28;99297.28;;;18.41;48.28
67738;BME280;54534;43.612;1.572;2023-04-01T05:08:57;99291.25;;;18.39;48.20
67738;BME280;54534;43.612;1.572;2023-04-01T05:11:22;99286.78;;;18.39;48.00
67738;BME280;54534;43.612;1.572;2023-04-01T05:13:48;99289.44;;;18.39;48.32
67738;BME280;54534;43.612;1.572;2023-04-01T05:16:16;99288.56;;;18.39;48.03
67738;BME280;54534;43.612;1.572;2023-04-01T05:18:42;99277.06;;;18.38;48.34
67738;BME280;54534;43.612;1.572;2023-04-01T05:21:09;99285.06;;;18.38;48.10
67738;BME280;54534;43.612;1.572;2023-04-01T05:23:35;99286.00;;;18.37;48.26
67738;BME280;54534;43.612;1.572;2023-04-01T05:26:12;99281.53;;;18.38;48.30
67738;BME280;54534;43.612;1.572;2023-04-01T05:28:37;99289.53;;;18.38;48.17
67738;BME280;54534;43.612;1.572;2023-04-01T05:31:04;99284.22;;;18.38;48.28
67738;BME280;54534;43.612;1.572;2023-04-01T05:33:31;99285.16;;;18.37;48.34
67738;BME280;54534;43.612;1.572;2023-04-01T05:35:57;99290.50;;;18.37;48.27
67738;BME280;54534;43.612;1.572;2023-04-01T05:38:30;99281.69;;;18.36;48.35
67738;BME280;54534;43.612;1.572;2023-04-01T05:40:59;99286.16;;;18.36;48.47
67738;BME280;54534;43.612;1.572;2023-04-01T05:43:25;99295.00;;;18.36;48.24
67738;BME280;54534;43.612;1.572;2023-04-01T05:45:50;99288.81;;;18.36;48.20
67738;BME280;54534;43.612;1.572;2023-04-01T05:48:15;99289.75;;;18.34;48.46
67738;BME280;54534;43.612;1.572;2023-04-01T05:50:41;99289.75;;;18.34;48.09
67738;BME280;54534;43.612;1.572;2023-04-01T05:53:07;99285.53;;;18.32;48.14
67738;BME280;54534;43.612;1.572;2023-04-01T05:55:35;99297.75;;;18.34;48.06
67738;BME280;54534;43.612;1.572;2023-04-01T05:58:00;99290.75;;;18.33;48.12
67738;BME280;54534;43.612;1.572;2023-04-01T06:00:26;99301.41;;;18.33;48.18
67738;BME280;54534;43.612;1.572;2023-04-01T06:02:51;99297.03;;;18.32;47.95
67738;BME280;54534;43.612;1.572;2023-04-01T06:05:23;99305.88;;;18.33;47.84
67738;BME280;54534;43.612;1.572;2023-04-01T06:07:51;99308.53;;;18.33;48.34
67738;BME280;54534;43.612;1.572;2023-04-01T06:10:21;99306.81;;;18.32;48.01
67738;BME280;54534;43.612;1.572;2023-04-01T06:15:54;99319.28;;;18.31;48.05
67738;BME280;54534;43.612;1.572;2023-04-01T06:31:57;99323.78;;;18.31;48.41
67738;BME280;54534;43.612;1.572;2023-04-01T06:35:02;99323.88;;;18.29;47.90
67738;BME280;54534;43.612;1.572;2023-04-01T06:56:15;99318.69;;;18.28;48.25
67738;BME280;54534;43.612;1.572;2023-04-01T07:01:15;99331.16;;;18.27;48.38
67738;BME280;54534;43.612;1.572;2023-04-01T07:03:45;99332.00;;;18.28;48.26
67738;BME280;54534;43.612;1.572;2023-04-01T07:08:51;99323.03;;;18.29;48.39
67738;BME280;54534;43.612;1.572;2023-04-01T07:11:31;99316.88;;;18.28;48.42
67738;BME280;54534;43.612;1.572;2023-04-01T07:19:13;99331.00;;;18.29;48.27
67738;BME280;54534;43.612;1.572;2023-04-01T07:21:45;99323.16;;;18.27;48.06
67738;BME280;54534;43.612;1.572;2023-04-01T07:24:21;99325.69;;;18.29;48.17
67738;BME280;54534;43.612;1.572;2023-04-01T07:26:53;99321.34;;;18.28;48.23
67738;BME280;54534;43.612;1.572;2023-04-01T07:29:20;99324.00;;;18.28;48.30
67738;BME280;54534;43.612;1.572;2023-04-01T07:37:22;99307.31;;;18.26;48.50
67738;BME280;54534;43.612;1.572;2023-04-01T07:42:49;99310.81;;;18.26;48.03
67738;BME280;54534;43.612;1.572;2023-04-01T07:45:47;99308.16;;;18.26;47.96
67738;BME280;54534;43.612;1.572;2023-04-01T07:51:17;99305.47;;;18.26;48.32
67738;BME280;54534;43.612;1.572;2023-04-01T07:54:01;99303.81;;;18.25;48.09
67738;BME280;54534;43.612;1.572;2023-04-01T07:59:27;99300.44;;;18.23;48.16
67738;BME280;54534;43.612;1.572;2023-04-01T08:02:21;99302.94;;;18.25;48.06
67738;BME280;54534;43.612;1.572;2023-04-01T08:07:39;99298.72;;;18.22;48.11
67738;BME280;54534;43.612;1.572;2023-04-01T08:10:31;99291.59;;;18.22;48.40
67738;BME280;54534;43.612;1.572;2023-04-01T08:21:24;99279.22;;;18.21;47.88
67738;BME280;54534;43.612;1.572;2023-04-01T08:23:56;99280.09;;;18.22;47.87
67738;BME280;54534;43.612;1.572;2023-04-01T08:26:30;99271.25;;;18.21;47.78
67738;BME280;54534;43.612;1.572;2023-04-01T08:29:10;99270.41;;;18.21;47.89
67738;BME280;54534;43.612;1.572;2023-04-01T08:31:50;99265.94;;;18.21;47.73
67738;BME280;54534;43.612;1.572;2023-04-01T08:34:21;99258.78;;;18.22;47.89
67738;BME280;54534;43.612;1.572;2023-04-01T08:36:52;99270.41;;;18.21;48.01
67738;BME280;54534;43.612;1.572;2023-04-01T08:39:31;99275.72;;;18.21;48.28
67738;BME280;54534;43.612;1.572;2023-04-01T09:06:52;99256.34;;;18.19;48.08
67738;BME280;54534;43.612;1.572;2023-04-01T09:18:21;99251.88;;;18.19;47.57
67738;BME280;54534;43.612;1.572;2023-04-01T09:29:05;99238.69;;;18.18;48.07
67738;BME280;54534;43.612;1.572;2023-04-01T09:37:53;99227.19;;;18.17;47.79
67738;BME280;54534;43.612;1.572;2023-04-01T09:46:22;99229.00;;;18.17;47.80
67738;BME280;54534;43.612;1.572;2023-04-01T10:14:37;99189.94;;;18.17;47.29
67738;BME280;54534;43.612;1.572;2023-04-01T10:20:00;99180.16;;;18.18;47.87
67738;BME280;54534;43.612;1.572;2023-04-01T10:35:10;99173.13;;;18.17;47.71
67738;BME280;54534;43.612;1.572;2023-04-01T10:43:15;99165.84;;;18.19;47.49
67738;BME280;54534;43.612;1.572;2023-04-01T10:46:01;99150.03;;;18.17;47.64
67738;BME280;54534;43.612;1.572;2023-04-01T10:54:20;99152.56;;;18.19;47.44
67738;BME280;54534;43.612;1.572;2023-04-01T11:32:50;99172.53;;;18.25;47.37
67738;BME280;54534;43.612;1.572;2023-04-01T11:43:31;99160.94;;;18.26;47.38
67738;BME280;54534;43.612;1.572;2023-04-01T11:49:00;99148.59;;;18.25;47.42
67738;BME280;54534;43.612;1.572;2023-04-01T11:54:19;99148.72;;;18.23;47.72
67738;BME280;54534;43.612;1.572;2023-04-01T11:59:51;99160.94;;;18.26;47.52
67738;BME280;54534;43.612;1.572;2023-04-01T12:02:25;99157.28;;;18.27;47.30
67738;BME280;54534;43.612;1.572;2023-04-01T12:48:18;99140.47;;;18.26;47.62
67738;BME280;54534;43.612;1.572;2023-04-01T12:54:02;99140.47;;;18.26;47.40
67738;BME280;54534;43.612;1.572;2023-04-01T13:02:27;99139.50;;;18.27;47.86
67738;BME280;54534;43.612;1.572;2023-04-01T13:16:14;99159.09;;;18.26;47.29
67738;BME280;54534;43.612;1.572;2023-04-01T13:21:19;99166.25;;;18.26;47.45
67738;BME280;54534;43.612;1.572;2023-04-01T13:23:54;99143.97;;;18.27;47.34
67738;BME280;54534;43.612;1.572;2023-04-01T13:29:21;99130.69;;;18.27;47.38
67738;BME280;54534;43.612;1.572;2023-04-01T13:37:32;99114.13;;;18.23;47.39
67738;BME280;54534;43.612;1.572;2023-04-01T13:42:40;99087.53;;;18.23;47.52
67738;BME280;54534;43.612;1.572;2023-04-01T13:45:19;99074.06;;;18.25;47.73
67738;BME280;54534;43.612;1.572;2023-04-01T13:50:17;99089.19;;;18.24;47.72
67738;BME280;54534;43.612;1.572;2023-04-01T14:07:04;99071.56;;;18.23;47.64
67738;BME280;54534;43.612;1.572;2023-04-01T14:18:00;99057.41;;;18.22;47.46
67738;BME280;54534;43.612;1.572;2023-04-01T14:29:21;99068.75;;;18.25;47.68
67738;BME280;54534;43.612;1.572;2023-04-01T14:45:23;99079.41;;;18.25;47.49
67738;BME280;54534;43.612;1.572;2023-04-01T14:48:35;99092.00;;;18.22;47.20
67738;BME280;54534;43.612;1.572;2023-04-01T14:50:46;99103.50;;;18.23;47.28
67738;BME280;54534;43.612;1.572;2023-04-01T14:55:52;99112.44;;;18.22;47.44
67738;BME280;54534;43.612;1.572;2023-04-01T14:58:22;99128.41;;;18.22;47.51
67738;BME280;54534;43.612;1.572;2023-04-01T15:06:40;99182.47;;;18.22;47.52
67738;BME280;54534;43.612;1.572;2023-04-01T15:09:19;99195.06;;;18.20;47.57
67738;BME280;54534;43.612;1.572;2023-04-01T15:22:37;99195.06;;;18.20;47.07
67738;BME280;54534;43.612;1.572;2023-04-01T15:25:19;99179.09;;;18.20;46.96
67738;BME280;54534;43.612;1.572;2023-04-01T15:35:43;99143.72;;;18.18;47.31
67738;BME280;54534;43.612;1.572;2023-04-01T15:40:57;99129.47;;;18.19;47.20
67738;BME280;54534;43.612;1.572;2023-04-01T15:43:40;99113.72;;;18.16;47.64
67738;BME280;54534;43.612;1.572;2023-04-01T15:46:29;99108.16;;;18.19;47.42
67738;BME280;54534;43.612;1.572;2023-04-01T15:54:25;99084.22;;;18.19;47.23
67738;BME280;54534;43.612;1.572;2023-04-01T16:03:02;99093.28;;;18.17;47.24
67738;BME280;54534;43.612;1.572;2023-04-01T16:06:09;99093.28;;;18.17;47.33
67738;BME280;54534;43.612;1.572;2023-04-01T16:22:05;99078.03;;;18.19;47.58
67738;BME280;54534;43.612;1.572;2023-04-01T16:24:59;99095.72;;;18.20;47.60
67738;BME280;54534;43.612;1.572;2023-04-01T16:30:38;99100.19;;;18.19;47.70
67738;BME280;54534;43.612;1.572;2023-04-01T16:33:12;99100.19;;;18.19;47.53
67738;BME280;54534;43.612;1.572;2023-04-01T16:36:09;99102.84;;;18.19;47.63
67738;BME280;54534;43.612;1.572;2023-04-01T16:41:37;99122.31;;;18.20;47.75
67738;BME280;54534;43.612;1.572;2023-04-01T16:44:22;99129.47;;;18.19;47.40
67738;BME280;54534;43.612;1.572;2023-04-01T16:46:53;99134.78;;;18.19;47.89
67738;BME280;54534;43.612;1.572;2023-04-01T16:49:25;99147.16;;;18.20;47.53
67738;BME280;54534;43.612;1.572;2023-04-01T16:54:42;99148.94;;;18.20;47.70
67738;BME280;54534;43.612;1.572;2023-04-01T17:07:54;99163.13;;;18.20;47.21
67738;BME280;54534;43.612;1.572;2023-04-01T17:21:07;99166.94;;;18.16;47.06
67738;BME280;54534;43.612;1.572;2023-04-01T17:23:50;99161.63;;;18.16;47.46
67738;BME280;54534;43.612;1.572;2023-04-01T17:31:39;99159.81;;;18.17;47.40
67738;BME280;54534;43.612;1.572;2023-04-01T17:37:41;99171.41;;;18.16;47.50
67738;BME280;54534;43.612;1.572;2023-04-01T17:40:00;99155.44;;;18.16;47.06
67738;BME280;54534;43.612;1.572;2023-04-01T17:47:31;99159.09;;;18.15;47.11
67738;BME280;54534;43.612;1.572;2023-04-01T18:09:13;99162.84;;;18.12;47.08
67738;BME280;54534;43.612;1.572;2023-04-01T18:14:49;99180.63;;;18.11;47.30
67738;BME280;54534;43.612;1.572;2023-04-01T18:17:31;99185.94;;;18.11;47.22
67738;BME280;54534;43.612;1.572;2023-04-01T18:22:48;99184.13;;;18.12;47.62
67738;BME280;54534;43.612;1.572;2023-04-01T18:25:22;99192.22;;;18.10;47.62
67738;BME280;54534;43.612;1.572;2023-04-01T18:28:20;99194.66;;;18.14;47.27
67738;BME280;54534;43.612;1.572;2023-04-01T18:31:23;99192.97;;;18.12;47.82
67738;BME280;54534;43.612;1.572;2023-04-01T18:36:38;99199.97;;;18.14;47.72
67738;BME280;54534;43.612;1.572;2023-04-01T18:47:14;99209.91;;;18.11;47.77
67738;BME280;54534;43.612;1.572;2023-04-01T18:57:42;99216.78;;;18.14;47.59
67738;BME280;54534;43.612;1.572;2023-04-01T19:02:50;99224.06;;;18.12;47.13
67738;BME280;54534;43.612;1.572;2023-04-01T19:07:53;99222.34;;;18.11;47.46
67738;BME280;54534;43.612;1.572;2023-04-01T19:10:36;99216.16;;;18.10;47.03
67738;BME280;54534;43.612;1.572;2023-04-01T19:13:25;99222.34;;;18.11;47.46
67738;BME280;54534;43.612;1.572;2023-04-01T19:21:21;99225.13;;;18.09;47.26
67738;BME280;54534;43.612;1.572;2023-04-01T19:24:16;99232.13;;;18.10;47.28
67738;BME280;54534;43.612;1.572;2023-04-01T19:33:31;99237.34;;;18.12;47.28
67738;BME280;54534;43.612;1.572;2023-04-01T19:38:22;99236.50;;;18.11;47.54
67738;BME280;54534;43.612;1.572;2023-04-01T19:46:32;99238.22;;;18.12;47.31
67738;BME280;54534;43.612;1.572;2023-04-01T19:49:15;99239.88;;;18.14;47.36
67738;BME280;54534;43.612;1.572;2023-04-01T19:57:38;99235.28;;;18.16;47.69
67738;BME280;54534;43.612;1.572;2023-04-01T20:00:26;99238.78;;;18.16;47.29
67738;BME280;54534;43.612;1.572;2023-04-01T20:05:39;99237.00;;;18.17;47.33
67738;BME280;54534;43.612;1.572;2023-04-01T20:08:25;99244.03;;;18.18;47.26
67738;BME280;54534;43.612;1.572;2023-04-01T20:13:51;99240.38;;;18.19;47.52
67738;BME280;54534;43.612;1.572;2023-04-01T20:16:22;99243.03;;;18.19;47.75
67738;BME280;54534;43.612;1.572;2023-04-01T20:19:02;99243.78;;;18.21;47.26
67738;BME280;54534;43.612;1.572;2023-04-01T20:21:40;99233.13;;;18.21;47.30
67738;BME280;54534;43.612;1.572;2023-04-01T20:24:36;99234.00;;;18.21;47.62
67738;BME280;54534;43.612;1.572;2023-04-01T20:27:17;99232.19;;;18.22;47.47
67738;BME280;54534;43.612;1.572;2023-04-01T20:35:35;99230.38;;;18.22;47.67
67738;BME280;54534;43.612;1.572;2023-04-01T20:40:51;99247.19;;;18.23;47.44
67738;BME280;54534;43.612;1.572;2023-04-01T20:51:21;99255.78;;;18.27;47.80
67738;BME280;54534;43.612;1.572;2023-04-01T21:07:35;99257.34;;;18.29;47.69
67738;BME280;54534;43.612;1.572;2023-04-01T21:12:47;99280.34;;;18.30;47.64
67738;BME280;54534;43.612;1.572;2023-04-01T21:15:25;99269.69;;;18.30;47.60
67738;BME280;54534;43.612;1.572;2023-04-01T21:18:19;99275.88;;;18.31;47.63
67738;BME280;54534;43.612;1.572;2023-04-01T21:26:33;99266.91;;;18.32;47.45
67738;BME280;54534;43.612;1.572;2023-04-01T21:39:58;99264.13;;;18.33;47.81
67738;BME280;54534;43.612;1.572;2023-04-01T21:51:06;99272.13;;;18.33;47.60
67738;BME280;54534;43.612;1.572;2023-04-01T22:04:59;99260.16;;;18.39;49.37
67738;BME280;54534;43.612;1.572;2023-04-01T22:13:31;99269.91;;;18.50;52.15
67738;BME280;54534;43.612;1.572;2023-04-01T22:16:20;99274.28;;;18.51;52.68
67738;BME280;54534;43.612;1.572;2023-04-01T22:19:12;99288.22;;;18.55;52.44
67738;BME280;54534;43.612;1.572;2023-04-01T22:27:26;99287.84;;;18.60;52.12
67738;BME280;54534;43.612;1.572;2023-04-01T22:32:36;99289.41;;;18.62;51.49
67738;BME280;54534;43.612;1.572;2023-04-01T22:40:42;99292.09;;;18.62;50.80
67738;BME280;54534;43.612;1.572;2023-04-01T22:43:37;99295.59;;;18.63;50.83
67738;BME280;54534;43.612;1.572;2023-04-01T22:49:06;99293.91;;;18.62;50.32
67738;BME280;54534;43.612;1.572;2023-04-01T22:54:38;99292.19;;;18.61;49.91
67738;BME280;54534;43.612;1.572;2023-04-01T22:57:14;99302.84;;;18.61;50.03
67738;BME280;54534;43.612;1.572;2023-04-01T22:59:57;99299.34;;;18.60;49.54
67738;BME280;54534;43.612;1.572;2023-04-01T23:02:28;99295.84;;;18.60;49.67
67738;BME280;54534;43.612;1.572;2023-04-01T23:04:57;99300.19;;;18.61;49.20
67738;BME280;54534;43.612;1.572;2023-04-01T23:07:38;99295.84;;;18.60;49.44
67738;BME280;54534;43.612;1.572;2023-04-01T23:10:37;99305.63;;;18.59;49.06
67738;BME280;54534;43.612;1.572;2023-04-01T23:13:10;99302.13;;;18.59;48.76
67738;BME280;54534;43.612;1.572;2023-04-01T23:15:39;99304.78;;;18.59;48.90
67738;BME280;54534;43.612;1.572;2023-04-01T23:18:45;99306.59;;;18.58;48.67
67738;BME280;54534;43.612;1.572;2023-04-01T23:21:30;99304.06;;;18.56;48.68
67738;BME280;54534;43.612;1.572;2023-04-01T23:26:43;99299.69;;;18.55;48.58
67738;BME280;54534;43.612;1.572;2023-04-01T23:29:15;99309.53;;;18.55;48.25
67738;BME280;54534;43.612;1.572;2023-04-01T23:31:43;99313.13;;;18.54;48.43
67738;BME280;54534;43.612;1.572;2023-04-01T23:36:42;99317.63;;;18.53;47.86
67738;BME280;54534;43.612;1.572;2023-04-01T23:41:48;99319.56;;;18.51;48.50
67738;BME280;54534;43.612;1.572;2023-04-01T23:44:14;99316.03;;;18.51;48.09
67738;BME280;54534;43.612;1.572;2023-04-01T23:46:42;99323.16;;;18.50;48.21
67738;BME280;54534;43.612;1.572;2023-04-01T23:49:14;99317.84;;;18.50;47.99
67738;BME280;54534;43.612;1.572;2023-04-01T23:51:56;99325.00;;;18.50;48.22
67738;BME280;54534;43.612;1.572;2023-04-01T23:56:57;99323.44;;;18.47;47.73
67738;BME280;54534;43.612;1.572;2023-04-01T23:59:30;99319.06;;;18.46;48.12
